Time;durP1;ratioP1;P1;durP2;ratioP2;P2;SDS_P1;SDS_P2;PMS_P1;PMS_P2;Temp;Humidity;BMP_temperature;BMP_pressure;BME280_temperature;BME280_humidity;BME280_pressure;Samples;Min_cycle;Max_cycle;Signal;HPM_P1;HPM_P2
2022/05/10 00:01:35;;;;;;;6.45;5.53;;;20.00;91.80;;;;;;5055824;28;20842;-33
2022/05/10 00:04:04;;;;;;;6.57;5.35;;;19.90;91.80;;;;;;5067414;28;20256;-34
2022/05/10 00:06:45;;;;;;;6.20;5.60;;;19.90;92.00;;;;;;5062165;28;20322;-33
2022/05/10 00:09:14;;;;;;;7.13;5.80;;;19.90;91.90;;;;;;5067343;28;20196;-32
2022/05/10 00:11:41;;;;;;;7.25;6.18;;;19.80;91.80;;;;;;5063331;28;20235;-33
2022/05/10 00:14:09;;;;;;;6.05;5.45;;;19.80;91.90;;;;;;5061963;28;20625;-32
2022/05/10 00:16:40;;;;;;;6.45;5.70;;;19.70;91.90;;;;;;5047204;28;20227;-32
2022/05/10 00:19:13;;;;;;;7.70;5.82;;;19.70;92.00;;;;;;5053629;28;20670;-33
2022/05/10 00:21:46;;;;;;;6.40;5.80;;;19.70;91.90;;;;;;5048913;28;20246;-34
2022/05/10 00:24:16;;;;;;;7.25;5.57;;;19.60;91.90;;;;;;5050450;28;20204;-32
2022/05/10 00:26:45;;;;;;;6.50;5.82;;;19.60;92.00;;;;;;5050531;28;20230;-33
2022/05/10 00:29:12;;;;;;;6.00;5.15;;;19.50;92.00;;;;;;5053430;28;20215;-32
2022/05/10 00:31:44;;;;;;;6.47;5.75;;;19.50;92.00;;;;;;5060742;28;20268;-32
2022/05/10 00:34:16;;;;;;;8.15;5.68;;;19.40;92.20;;;;;;5050489;28;20600;-32
2022/05/10 00:36:48;;;;;;;5.60;5.07;;;19.30;92.10;;;;;;5060792;28;20215;-32
2022/05/10 00:39:18;;;;;;;6.18;5.55;;;19.30;92.10;;;;;;5050252;28;20613;-32
2022/05/10 00:42:01;;;;;;;5.80;5.30;;;19.30;92.10;;;;;;5050429;28;20232;-32
2022/05/10 00:44:43;;;;;;;6.50;5.90;;;19.20;92.30;;;;;;5050585;28;20208;-32
2022/05/10 00:47:50;;;;;;;6.93;5.72;;;19.20;92.50;;;;;;5050486;28;20228;-32
2022/05/10 00:50:32;;;;;;;7.38;5.68;;;19.10;92.60;;;;;;5052686;28;20200;-32
2022/05/10 00:53:07;;;;;;;8.00;5.65;;;19.00;92.40;;;;;;5050681;28;20204;-33
2022/05/10 00:55:43;;;;;;;8.30;5.80;;;19.00;92.40;;;;;;5062079;28;20587;-32
2022/05/10 00:58:39;;;;;;;5.72;5.22;;;18.90;92.40;;;;;;5053570;28;20700;-32
2022/05/10 01:01:11;;;;;;;6.30;5.70;;;18.90;92.60;;;;;;5054811;28;20283;-32
2022/05/10 01:04:14;;;;;;;6.47;5.88;;;18.80;92.30;;;;;;5059137;28;20239;-32
2022/05/10 01:06:51;;;;;;;6.88;5.78;;;18.80;92.50;;;;;;5042180;28;20238;-32
2022/05/10 01:09:30;;;;;;;6.30;5.70;;;18.70;92.20;;;;;;5063225;28;20294;-33
2022/05/10 01:12:12;;;;;;;8.23;5.70;;;18.70;92.50;;;;;;5069581;28;20701;-32
2022/05/10 01:15:05;;;;;;;6.22;5.70;;;18.70;92.50;;;;;;5069799;28;20507;-32
2022/05/10 01:17:33;;;;;;;6.68;5.55;;;18.60;92.40;;;;;;5069981;28;20207;-32
2022/05/10 01:20:04;;;;;;;6.20;5.60;;;18.60;92.30;;;;;;5054100;28;20677;-32
2022/05/10 01:22:50;;;;;;;7.15;5.80;;;18.60;92.40;;;;;;5051011;28;20302;-33
2022/05/10 01:25:43;;;;;;;7.05;5.55;;;18.50;92.60;;;;;;5068680;28;20187;-32
2022/05/10 01:28:25;;;;;;;7.53;5.97;;;18.50;92.60;;;;;;5066040;28;20211;-33
2022/05/10 01:30:56;;;;;;;6.60;5.70;;;18.40;92.50;;;;;;5068238;28;20200;-33
2022/05/10 01:33:31;;;;;;;6.63;5.63;;;18.40;92.30;;;;;;5069210;28;20570;-33
2022/05/10 01:36:04;;;;;;;6.40;5.80;;;18.30;92.40;;;;;;5068360;28;20214;-33
2022/05/10 01:38:57;;;;;;;6.78;5.50;;;18.30;92.50;;;;;;5069062;28;20677;-33
2022/05/10 01:41:44;;;;;;;8.00;5.82;;;18.20;92.50;;;;;;5049120;28;20253;-33
2022/05/10 01:44:28;;;;;;;6.43;5.82;;;18.20;92.70;;;;;;5049434;28;20295;-33
2022/05/10 01:47:15;;;;;;;6.75;6.07;;;18.20;92.50;;;;;;5049373;28;20224;-33
2022/05/10 01:49:47;;;;;;;9.27;5.82;;;18.20;92.70;;;;;;5049019;28;20323;-33
2022/05/10 01:52:25;;;;;;;7.00;6.00;;;18.20;93.00;;;;;;5049233;28;20588;-33
2022/05/10 01:55:19;;;;;;;8.77;6.15;;;18.10;92.50;;;;;;5050319;28;20334;-33
2022/05/10 01:57:46;;;;;;;9.02;6.55;;;18.10;92.70;;;;;;5049773;28;20698;-33
2022/05/10 02:00:26;;;;;;;7.68;6.07;;;18.10;92.50;;;;;;5056458;28;20331;-35
2022/05/10 02:02:59;;;;;;;5.82;5.35;;;18.10;92.70;;;;;;5057435;28;20195;-33
2022/05/10 02:05:37;;;;;;;6.82;6.03;;;18.10;92.70;;;;;;5065833;28;20211;-33
2022/05/10 02:08:34;;;;;;;6.53;5.93;;;18.00;93.00;;;;;;5057511;28;20245;-33
2022/05/10 02:11:10;;;;;;;6.88;5.63;;;18.00;92.80;;;;;;5048336;28;20228;-33
2022/05/10 02:13:43;;;;;;;6.30;5.72;;;18.00;92.70;;;;;;5049507;28;20223;-33
2022/05/10 02:16:20;;;;;;;7.05;5.82;;;17.90;92.60;;;;;;5048682;28;20689;-33
2022/05/10 02:18:58;;;;;;;6.20;5.60;;;17.90;92.70;;;;;;5048574;28;20200;-33
2022/05/10 02:21:32;;;;;;;6.95;5.80;;;17.90;92.80;;;;;;5059771;28;20219;-32
2022/05/10 02:24:18;;;;;;;6.53;5.90;;;17.90;92.80;;;;;;5068556;28;20234;-33
2022/05/10 02:26:51;;;;;;;6.22;5.63;;;17.80;92.80;;;;;;5068132;28;20235;-32
2022/05/10 02:29:57;;;;;;;7.85;6.47;;;17.80;92.70;;;;;;5068466;28;20195;-35
2022/05/10 02:33:06;;;;;;;6.43;5.82;;;17.80;92.90;;;;;;5026870;28;20208;-35
2022/05/10 02:35:49;;;;;;;7.07;6.10;;;17.80;93.10;;;;;;5047665;28;20668;-35
2022/05/10 02:38:19;;;;;;;7.57;6.25;;;17.70;93.00;;;;;;5048403;28;20230;-32
2022/05/10 02:40:47;;;;;;;6.55;5.90;;;17.70;92.80;;;;;;5048082;28;20204;-32
2022/05/10 02:43:20;;;;;;;6.15;5.55;;;17.70;92.80;;;;;;5047793;28;20300;-32
2022/05/10 02:45:50;;;;;;;6.78;6.15;;;17.70;92.90;;;;;;5046145;28;20188;-32
2022/05/10 02:48:35;;;;;;;7.30;5.97;;;17.60;92.90;;;;;;5052207;28;20909;-32
2022/05/10 02:51:05;;;;;;;6.50;5.97;;;17.60;93.00;;;;;;5046140;28;20369;-33
2022/05/10 02:53:34;;;;;;;7.15;6.43;;;17.60;92.90;;;;;;5053055;28;20291;-33
2022/05/10 02:56:12;;;;;;;6.13;5.55;;;17.50;92.90;;;;;;5067677;28;20617;-33
2022/05/10 02:59:04;;;;;;;7.93;6.18;;;17.50;92.90;;;;;;5064847;28;20264;-33
2022/05/10 03:02:02;;;;;;;7.00;6.30;;;17.50;93.00;;;;;;5067667;28;20220;-33
2022/05/10 03:04:42;;;;;;;6.85;6.15;;;17.50;93.20;;;;;;5064797;28;20196;-33
2022/05/10 03:07:10;;;;;;;6.50;5.90;;;17.40;93.10;;;;;;5051583;28;20277;-33
2022/05/10 03:09:45;;;;;;;6.95;5.90;;;17.40;93.00;;;;;;5047400;28;20220;-33
2022/05/10 03:12:17;;;;;;;6.03;5.43;;;17.40;93.00;;;;;;5047792;28;20332;-33
2022/05/10 03:14:44;;;;;;;6.57;5.55;;;17.40;93.00;;;;;;5047482;28;20212;-33
2022/05/10 03:17:14;;;;;;;6.50;5.90;;;17.40;93.00;;;;;;5047541;28;20212;-33
2022/05/10 03:19:49;;;;;;;7.22;6.03;;;17.40;93.10;;;;;;5047692;28;20214;-33
2022/05/10 03:22:16;;;;;;;8.60;6.35;;;17.30;93.00;;;;;;5047692;28;20220;-33
2022/05/10 03:24:48;;;;;;;7.32;6.63;;;17.30;93.00;;;;;;5047477;28;20222;-33
2022/05/10 03:27:17;;;;;;;8.63;5.93;;;17.30;93.10;;;;;;5048037;28;20220;-33
2022/05/10 03:29:45;;;;;;;6.97;6.15;;;17.30;93.10;;;;;;5047204;28;20234;-33
2022/05/10 03:32:12;;;;;;;7.32;6.25;;;17.30;93.10;;;;;;5047574;28;20848;-33
2022/05/10 03:34:55;;;;;;;7.55;6.75;;;17.30;93.10;;;;;;5047091;28;20211;-33
2022/05/10 03:37:25;;;;;;;7.03;6.32;;;17.30;93.10;;;;;;5047741;28;20698;-33
2022/05/10 03:39:59;;;;;;;10.32;6.63;;;17.30;93.20;;;;;;5047148;28;20244;-34
2022/05/10 03:42:26;;;;;;;7.38;6.18;;;17.30;93.20;;;;;;5057243;28;20218;-33
2022/05/10 03:44:54;;;;;;;11.68;6.45;;;17.30;93.10;;;;;;5067554;28;20204;-33
2022/05/10 03:47:26;;;;;;;6.88;6.28;;;17.20;93.20;;;;;;5067748;28;20219;-33
2022/05/10 03:49:54;;;;;;;6.88;6.18;;;17.20;93.30;;;;;;5066093;28;20210;-34
2022/05/10 03:52:24;;;;;;;7.53;6.32;;;17.20;93.20;;;;;;5055441;28;20227;-33
2022/05/10 03:54:53;;;;;;;6.65;6.05;;;17.20;93.30;;;;;;5048361;28;20761;-33
2022/05/10 03:57:23;;;;;;;7.95;6.75;;;17.20;93.60;;;;;;5051267;28;20308;-34
2022/05/10 03:59:54;;;;;;;9.88;6.85;;;17.20;93.30;;;;;;5063024;28;20761;-33
2022/05/10 04:02:22;;;;;;;8.25;6.78;;;17.20;93.40;;;;;;5071308;28;20748;-33
2022/05/10 04:04:52;;;;;;;7.90;6.78;;;17.20;93.40;;;;;;5068889;28;20222;-33
2022/05/10 04:07:19;;;;;;;17.70;9.32;;;17.20;93.40;;;;;;5053058;28;20224;-33
2022/05/10 04:09:46;;;;;;;15.55;8.77;;;17.20;93.60;;;;;;5052786;28;20698;-33
2022/05/10 04:12:14;;;;;;;9.13;7.40;;;17.20;93.40;;;;;;5051531;28;20825;-33
2022/05/10 04:14:43;;;;;;;9.40;6.47;;;17.20;93.50;;;;;;5052259;28;20289;-33
2022/05/10 04:17:13;;;;;;;7.32;6.55;;;17.20;93.50;;;;;;5059354;28;20204;-33
2022/05/10 04:19:43;;;;;;;7.72;6.30;;;17.20;93.50;;;;;;5050015;28;20223;-33
2022/05/10 04:22:10;;;;;;;7.43;6.72;;;17.20;93.60;;;;;;5070104;28;20567;-34
2022/05/10 04:24:39;;;;;;;7.43;6.47;;;17.20;93.60;;;;;;5070693;28;20215;-34
2022/05/10 04:27:13;;;;;;;8.55;6.78;;;17.10;93.60;;;;;;5070839;28;20219;-33
2022/05/10 04:29:43;;;;;;;7.55;6.43;;;17.10;93.60;;;;;;5061350;28;20208;-34
2022/05/10 04:32:12;;;;;;;9.20;6.93;;;17.10;93.60;;;;;;5050700;28;20205;-34
2022/05/10 04:34:39;;;;;;;9.77;7.57;;;17.20;93.70;;;;;;5070095;28;20574;-34
2022/05/10 04:37:10;;;;;;;7.85;7.13;;;17.20;93.70;;;;;;5070301;28;20208;-34
2022/05/10 04:42:27;;;;;;;10.00;6.70;;;17.20;93.70;;;;;;5070325;28;20299;-34
2022/05/10 04:44:54;;;;;;;7.85;7.00;;;17.20;93.80;;;;;;5067663;28;20223;-34
2022/05/10 04:47:26;;;;;;;10.15;6.90;;;17.20;93.80;;;;;;5055585;28;20633;-34
2022/05/10 04:49:53;;;;;;;14.45;7.45;;;17.20;93.80;;;;;;5063883;28;20215;-33
2022/05/10 04:52:20;;;;;;;8.27;6.88;;;17.20;93.80;;;;;;5054651;28;20207;-34
2022/05/10 04:54:50;;;;;;;8.10;6.93;;;17.30;93.90;;;;;;5069800;28;20208;-34
2022/05/10 04:57:22;;;;;;;11.20;7.43;;;17.30;94.00;;;;;;5069941;28;20217;-34
2022/05/10 04:59:49;;;;;;;9.98;7.43;;;17.30;93.90;;;;;;5056114;28;20208;-34
2022/05/10 05:02:18;;;;;;;10.95;7.10;;;17.30;93.90;;;;;;5056045;28;20647;-34
2022/05/10 05:04:46;;;;;;;14.50;7.63;;;17.40;94.10;;;;;;5054986;28;20199;-34
2022/05/10 05:07:13;;;;;;;16.50;8.30;;;17.40;94.10;;;;;;5058950;28;20215;-34
2022/05/10 05:09:40;;;;;;;10.32;7.97;;;17.40;94.10;;;;;;5055620;28;20230;-34
2022/05/10 05:12:11;;;;;;;10.88;7.10;;;17.50;94.20;;;;;;5054715;28;20658;-34
2022/05/10 05:14:41;;;;;;;13.13;7.75;;;17.50;94.20;;;;;;5053593;28;20295;-34
2022/05/10 05:17:10;;;;;;;10.45;8.35;;;17.60;94.30;;;;;;5059171;28;20760;-34
2022/05/10 05:19:40;;;;;;;14.02;7.97;;;17.60;94.30;;;;;;5064038;28;20208;-34
2022/05/10 05:22:09;;;;;;;12.23;7.57;;;17.60;94.30;;;;;;5068981;28;20233;-34
2022/05/10 05:24:39;;;;;;;12.48;7.45;;;17.70;94.40;;;;;;5068562;28;20191;-34
2022/05/10 05:27:06;;;;;;;12.23;7.55;;;17.70;94.40;;;;;;5054250;28;20220;-34
2022/05/10 05:29:34;;;;;;;11.15;7.60;;;17.70;94.40;;;;;;5065675;28;20564;-33
2022/05/10 05:32:28;;;;;;;9.18;7.28;;;17.80;94.50;;;;;;5069252;28;20192;-34
2022/05/10 05:34:58;;;;;;;15.35;8.00;;;17.90;94.60;;;;;;5068134;28;20221;-33
2022/05/10 05:37:33;;;;;;;23.10;9.10;;;17.90;94.50;;;;;;5068353;28;20235;-33
2022/05/10 05:40:07;;;;;;;24.90;8.77;;;18.00;94.60;;;;;;5058212;28;20608;-33
2022/05/10 05:42:37;;;;;;;27.35;9.95;;;18.00;94.70;;;;;;5061975;28;20257;-33
2022/05/10 05:45:10;;;;;;;33.25;10.95;;;18.10;94.70;;;;;;5068423;28;20820;-34
2022/05/10 05:47:38;;;;;;;24.73;9.25;;;18.20;94.80;;;;;;5066641;28;20235;-33
2022/05/10 05:50:12;;;;;;;32.15;9.50;;;18.20;94.80;;;;;;5048483;28;20211;-32
2022/05/10 05:52:39;;;;;;;32.10;9.30;;;18.30;94.90;;;;;;5059144;28;20212;-34
2022/05/10 05:55:08;;;;;;;33.00;10.63;;;18.40;94.90;;;;;;5058996;28;20694;-33
2022/05/10 05:57:38;;;;;;;30.98;9.32;;;18.50;95.00;;;;;;5048534;28;20208;-33
2022/05/10 06:00:10;;;;;;;20.73;8.65;;;18.60;95.00;;;;;;5055561;28;20212;-33
2022/05/10 06:02:41;;;;;;;19.75;7.90;;;18.70;95.20;;;;;;5057506;28;20306;-33
2022/05/10 06:05:09;;;;;;;14.60;7.70;;;18.80;95.10;;;;;;5053370;28;20313;-32
2022/05/10 06:07:37;;;;;;;11.48;7.20;;;18.80;95.20;;;;;;5059487;28;20212;-33
2022/05/10 06:10:06;;;;;;;11.45;7.55;;;19.00;95.20;;;;;;5048316;28;20315;-32
2022/05/10 06:12:33;;;;;;;19.65;8.30;;;19.00;95.30;;;;;;5049294;28;20327;-33
2022/05/10 06:15:08;;;;;;;24.55;10.07;;;19.10;95.30;;;;;;5053487;28;20207;-33
2022/05/10 06:17:39;;;;;;;17.77;8.05;;;19.20;95.40;;;;;;5068464;28;20619;-33
2022/05/10 06:20:11;;;;;;;36.83;12.35;;;19.30;95.50;;;;;;5064620;28;20226;-33
2022/05/10 06:22:44;;;;;;;38.33;11.52;;;19.40;95.50;;;;;;5066908;28;20195;-33
2022/05/10 06:25:20;;;;;;;34.38;10.40;;;19.50;95.50;;;;;;5046776;28;20296;-33
2022/05/10 06:27:50;;;;;;;18.73;8.75;;;19.60;95.60;;;;;;5049017;28;20239;-33
2022/05/10 06:30:19;;;;;;;21.55;7.30;;;19.70;95.70;;;;;;5048659;28;20250;-33
2022/05/10 06:32:46;;;;;;;19.55;7.22;;;19.80;95.70;;;;;;5048705;28;20200;-33
2022/05/10 06:35:18;;;;;;;21.95;7.50;;;19.80;95.70;;;;;;5054507;28;20306;-33
2022/05/10 06:40:34;;;;;;;18.95;7.00;;;20.00;95.90;;;;;;5048746;28;20216;-35
2022/05/10 06:43:02;;;;;;;18.38;7.10;;;20.10;95.90;;;;;;5048401;28;20286;-32
2022/05/10 06:45:32;;;;;;;19.20;7.35;;;20.20;96.00;;;;;;5055227;28;20606;-33
2022/05/10 06:48:00;;;;;;;16.55;6.80;;;20.30;96.10;;;;;;5067917;28;20589;-35
2022/05/10 06:50:28;;;;;;;17.33;6.57;;;20.40;96.10;;;;;;5047468;28;20214;-35
2022/05/10 06:52:57;;;;;;;12.95;6.47;;;20.50;96.20;;;;;;5049807;28;20212;-35
2022/05/10 06:55:29;;;;;;;14.50;6.85;;;20.60;96.30;;;;;;5057712;28;20588;-35
2022/05/10 06:57:57;;;;;;;7.43;5.43;;;20.70;96.30;;;;;;5067650;28;20208;-35
2022/05/10 07:00:32;;;;;;;10.50;6.45;;;20.80;96.30;;;;;;5067757;28;20686;-33
2022/05/10 07:03:06;;;;;;;7.82;5.28;;;20.90;96.40;;;;;;5055684;28;20753;-33
2022/05/10 07:05:34;;;;;;;8.95;5.43;;;21.00;96.40;;;;;;5048237;28;20211;-33
2022/05/10 07:08:01;;;;;;;10.95;5.80;;;21.10;96.50;;;;;;5048519;28;20757;-33
2022/05/10 07:10:28;;;;;;;7.45;5.43;;;21.20;96.60;;;;;;5067268;28;20206;-33
2022/05/10 07:12:58;;;;;;;11.60;5.75;;;21.30;96.60;;;;;;5066111;28;20650;-33
2022/05/10 07:15:25;;;;;;;12.23;5.75;;;21.40;96.70;;;;;;5067403;28;20735;-33
2022/05/10 07:17:53;;;;;;;12.75;6.53;;;21.50;96.70;;;;;;5066348;28;20207;-33
2022/05/10 07:20:20;;;;;;;10.00;5.60;;;21.60;96.70;;;;;;5051443;28;20320;-35
2022/05/10 07:22:50;;;;;;;17.13;7.25;;;21.70;96.80;;;;;;5049532;28;20713;-35
2022/05/10 07:25:24;;;;;;;13.60;5.32;;;21.80;96.80;;;;;;5063855;28;20203;-35
2022/05/10 07:27:58;;;;;;;17.38;6.25;;;21.90;96.80;;;;;;5051380;28;20231;-35
2022/05/10 07:30:30;;;;;;;8.13;5.63;;;22.00;96.90;;;;;;5052018;28;20207;-35
2022/05/10 07:32:58;;;;;;;11.30;5.55;;;22.00;96.90;;;;;;5057939;28;20538;-35
2022/05/10 07:38:17;;;;;;;10.75;5.57;;;22.20;96.90;;;;;;5062544;28;20231;-35
2022/05/10 07:40:47;;;;;;;16.25;6.25;;;22.30;96.90;;;;;;5061921;28;20268;-35
2022/05/10 07:43:19;;;;;;;13.70;5.50;;;22.40;96.90;;;;;;5068376;28;20282;-35
2022/05/10 07:45:51;;;;;;;13.05;5.78;;;22.40;96.90;;;;;;5068393;28;20575;-35
2022/05/10 07:48:21;;;;;;;12.68;5.22;;;22.50;96.80;;;;;;5070906;28;20280;-35
2022/05/10 07:50:53;;;;;;;9.82;5.22;;;22.50;96.90;;;;;;5054619;28;20307;-35
2022/05/10 07:53:23;;;;;;;10.15;5.03;;;22.60;96.90;;;;;;5053034;28;20272;-35
2022/05/10 07:55:50;;;;;;;12.13;5.28;;;22.60;96.80;;;;;;5050512;28;20203;-35
2022/05/10 07:58:18;;;;;;;9.90;4.82;;;22.70;96.80;;;;;;5052242;28;20650;-35
2022/05/10 08:00:47;;;;;;;7.65;5.00;;;22.70;96.80;;;;;;5060051;28;20219;-35
2022/05/10 08:03:17;;;;;;;10.50;5.15;;;22.80;96.90;;;;;;5063118;28;20247;-35
2022/05/10 08:05:48;;;;;;;6.82;4.80;;;22.80;96.90;;;;;;5067302;28;20593;-33
2022/05/10 08:08:17;;;;;;;8.60;4.75;;;22.90;96.90;;;;;;5052377;28;20249;-33
2022/05/10 08:10:46;;;;;;;8.65;5.00;;;22.90;96.90;;;;;;5057589;28;20206;-34
2022/05/10 08:13:19;;;;;;;12.63;5.53;;;23.00;96.90;;;;;;5052855;28;20196;-33
2022/05/10 08:15:50;;;;;;;12.05;5.30;;;23.00;96.90;;;;;;5053409;28;20265;-34
2022/05/10 08:18:19;;;;;;;9.90;4.80;;;23.10;96.90;;;;;;5061055;28;20222;-33
2022/05/10 08:20:48;;;;;;;8.90;4.90;;;23.10;96.90;;;;;;5058161;28;20238;-33
2022/05/10 08:23:33;;;;;;;8.48;4.80;;;23.10;96.90;;;;;;5056754;28;20211;-34
2022/05/10 08:26:04;;;;;;;7.70;4.38;;;23.20;97.00;;;;;;5066998;28;20210;-34
2022/05/10 08:28:35;;;;;;;6.63;4.30;;;23.30;97.10;;;;;;5052827;28;20236;-33
2022/05/10 08:31:07;;;;;;;8.55;4.20;;;23.40;97.10;;;;;;5054045;28;20219;-33
2022/05/10 08:33:40;;;;;;;10.75;4.60;;;23.50;97.10;;;;;;5070904;28;20206;-33
2022/05/10 08:36:08;;;;;;;7.53;4.32;;;23.60;97.10;;;;;;5069511;28;20299;-34
2022/05/10 08:38:36;;;;;;;13.90;4.72;;;23.70;97.10;;;;;;5070229;28;20214;-35
2022/05/10 08:41:28;;;;;;;9.70;4.40;;;23.70;97.00;;;;;;5066405;28;20204;-33
2022/05/10 08:43:59;;;;;;;13.88;5.07;;;23.80;96.80;;;;;;5067073;28;20591;-33
2022/05/10 08:46:35;;;;;;;9.23;4.47;;;23.80;96.90;;;;;;5049967;28;20277;-33
2022/05/10 08:49:10;;;;;;;6.75;4.10;;;23.90;97.10;;;;;;5053103;28;20586;-34
2022/05/10 08:51:40;;;;;;;9.15;4.40;;;24.00;97.10;;;;;;5063115;28;20634;-33
2022/05/10 08:54:08;;;;;;;7.43;4.18;;;24.00;96.90;;;;;;5066738;28;20219;-33
2022/05/10 08:56:55;;;;;;;6.95;4.03;;;24.10;97.00;;;;;;5054575;28;20204;-33
2022/05/10 08:59:40;;;;;;;10.88;4.50;;;24.20;97.00;;;;;;5049910;28;20211;-33
2022/05/10 09:02:16;;;;;;;9.38;4.00;;;24.30;97.00;;;;;;5054827;28;20706;-33
2022/05/10 09:05:10;;;;;;;8.68;4.05;;;24.30;96.90;;;;;;5052945;28;20305;-32
2022/05/10 09:08:03;;;;;;;5.95;4.00;;;24.30;97.00;;;;;;5049627;28;20252;-33
2022/05/10 09:10:52;;;;;;;14.85;5.22;;;24.40;97.00;;;;;;5053786;28;20211;-33
2022/05/10 09:13:21;;;;;;;11.18;4.65;;;24.40;96.80;;;;;;5054713;28;20200;-33
2022/05/10 09:15:56;;;;;;;8.48;4.00;;;24.50;97.10;;;;;;5050584;28;20737;-33
2022/05/10 09:18:58;;;;;;;10.48;4.40;;;24.50;97.00;;;;;;5061591;28;20208;-33
2022/05/10 09:21:52;;;;;;;8.70;4.47;;;24.50;96.90;;;;;;5058240;28;20218;-33
2022/05/10 09:24:24;;;;;;;13.57;4.22;;;24.60;96.90;;;;;;5049376;28;20208;-33
2022/05/10 09:27:00;;;;;;;8.80;4.50;;;24.60;96.80;;;;;;5049225;28;20208;-33
2022/05/10 09:29:49;;;;;;;8.73;4.78;;;24.70;96.90;;;;;;5049383;28;20650;-33
2022/05/10 09:35:11;;;;;;;7.55;4.13;;;24.70;96.80;;;;;;5063311;28;20754;-35
2022/05/10 09:37:54;;;;;;;11.00;4.03;;;24.80;96.90;;;;;;5049655;28;20193;-35
2022/05/10 09:40:42;;;;;;;9.13;3.90;;;24.80;97.00;;;;;;5063146;28;20214;-35
2022/05/10 09:43:22;;;;;;;7.93;4.18;;;24.90;96.90;;;;;;5049163;28;20220;-35
2022/05/10 09:46:10;;;;;;;6.43;3.92;;;25.00;96.80;;;;;;5049121;28;20701;-35
2022/05/10 09:48:40;;;;;;;8.75;4.10;;;25.10;96.70;;;;;;5061105;28;20273;-33
2022/05/10 09:51:26;;;;;;;13.75;4.10;;;25.10;96.70;;;;;;5064760;28;20219;-33
2022/05/10 09:53:59;;;;;;;10.75;4.25;;;25.20;96.50;;;;;;5066956;28;20290;-33
2022/05/10 09:56:33;;;;;;;9.93;4.30;;;25.20;96.80;;;;;;5047754;28;20219;-33
2022/05/10 09:59:12;;;;;;;15.07;3.92;;;25.30;96.50;;;;;;5050087;28;20568;-33
2022/05/10 10:01:55;;;;;;;13.02;4.10;;;25.30;96.70;;;;;;5056444;28;20192;-33
2022/05/10 10:04:37;;;;;;;9.90;3.67;;;25.30;96.40;;;;;;5048031;28;20238;-35
2022/05/10 10:07:21;;;;;;;7.13;3.83;;;25.30;96.40;;;;;;5048348;28;20230;-34
2022/05/10 10:10:15;;;;;;;12.57;4.47;;;25.30;95.90;;;;;;5062329;28;20266;-35
2022/05/10 10:12:45;;;;;;;8.45;4.43;;;25.40;96.30;;;;;;5048525;28;20235;-34
2022/05/10 10:15:21;;;;;;;11.15;3.90;;;25.40;96.50;;;;;;5048164;28;20592;-34
2022/05/10 10:17:58;;;;;;;6.22;3.53;;;25.40;96.50;;;;;;5043657;28;20299;-34
2022/05/10 10:20:44;;;;;;;10.10;3.60;;;25.50;96.40;;;;;;5056379;28;20654;-34
2022/05/10 10:23:32;;;;;;;14.43;3.97;;;25.50;96.40;;;;;;5055736;28;20282;-34
2022/05/10 10:26:19;;;;;;;5.75;3.55;;;25.60;96.40;;;;;;5049174;28;20299;-34
2022/05/10 10:29:04;;;;;;;9.38;4.07;;;25.60;96.50;;;;;;5062986;28;20701;-34
2022/05/10 10:31:37;;;;;;;10.45;3.78;;;25.70;96.40;;;;;;5055592;28;20222;-34
2022/05/10 10:34:24;;;;;;;6.88;4.30;;;25.70;96.40;;;;;;5060287;28;20206;-34
2022/05/10 10:37:06;;;;;;;6.38;3.60;;;25.80;95.80;;;;;;5054840;28;20236;-34
2022/05/10 10:39:48;;;;;;;7.78;3.88;;;25.80;96.10;;;;;;5049751;28;20548;-34
2022/05/10 10:42:28;;;;;;;14.70;4.32;;;25.90;96.10;;;;;;5058190;28;20219;-34
2022/05/10 10:44:58;;;;;;;7.88;3.60;;;25.90;95.80;;;;;;5044897;28;20203;-34
2022/05/10 10:47:42;;;;;;;10.98;3.85;;;25.90;95.70;;;;;;5055693;28;20223;-34
2022/05/10 10:50:22;;;;;;;5.93;3.30;;;25.90;96.00;;;;;;5047459;28;20208;-34
2022/05/10 10:52:51;;;;;;;5.57;3.50;;;26.00;95.80;;;;;;5047760;28;20203;-34
2022/05/10 10:55:21;;;;;;;8.30;3.85;;;26.00;95.90;;;;;;5056798;28;20195;-34
2022/05/10 10:58:12;;;;;;;17.27;4.15;;;26.10;95.90;;;;;;5049823;28;20234;-34
2022/05/10 11:01:12;;;;;;;11.48;3.63;;;26.20;95.40;;;;;;5047577;28;20461;-34
2022/05/10 11:03:59;;;;;;;16.52;5.20;;;26.20;95.20;;;;;;5041802;28;20211;-34
2022/05/10 11:06:35;;;;;;;13.18;4.22;;;26.30;95.40;;;;;;5063328;28;20316;-34
2022/05/10 11:09:42;;;;;;;14.88;4.20;;;26.30;95.30;;;;;;5056853;28;20318;-34
2022/05/10 11:12:52;;;;;;;10.75;3.70;;;26.40;95.30;;;;;;5044524;28;20304;-34
2022/05/10 11:15:30;;;;;;;7.95;3.50;;;26.50;95.30;;;;;;5064028;28;20887;-34
2022/05/10 11:18:00;;;;;;;9.60;3.67;;;26.60;95.40;;;;;;5056940;28;20219;-34
2022/05/10 11:20:59;;;;;;;5.28;3.63;;;26.60;95.20;;;;;;5060586;28;20210;-34
2022/05/10 11:23:49;;;;;;;4.18;3.63;;;26.70;95.30;;;;;;5049206;28;20204;-34
2022/05/10 11:26:24;;;;;;;9.00;4.20;;;26.70;95.40;;;;;;5057712;28;20224;-34
2022/05/10 11:29:10;;;;;;;10.05;3.65;;;26.70;95.10;;;;;;5066482;28;20264;-34
2022/05/10 11:31:50;;;;;;;9.98;3.92;;;26.80;95.00;;;;;;5061953;28;20217;-34
2022/05/10 11:34:47;;;;;;;11.43;3.70;;;26.90;94.90;;;;;;5060563;28;20679;-34
2022/05/10 11:37:21;;;;;;;14.77;4.50;;;26.90;95.20;;;;;;5060756;28;20219;-36
2022/05/10 11:39:48;;;;;;;7.43;3.63;;;26.90;94.90;;;;;;5049459;28;20239;-36
2022/05/10 11:42:48;;;;;;;16.50;4.68;;;27.00;95.10;;;;;;5059912;28;20239;-36
2022/05/10 11:45:46;;;;;;;11.40;3.70;;;27.00;93.60;;;;;;5057301;28;20715;-36
2022/05/10 11:48:23;;;;;;;6.40;3.95;;;26.90;93.90;;;;;;5047475;28;20228;-36
2022/05/10 11:51:55;;;;;;;7.32;3.50;;;26.90;93.80;;;;;;5046433;28;20294;-36
2022/05/10 11:54:32;;;;;;;10.75;3.95;;;27.00;94.50;;;;;;5045517;28;20207;-36
2022/05/10 11:57:03;;;;;;;10.88;3.90;;;27.00;94.40;;;;;;5049320;28;21022;-36
2022/05/10 11:59:36;;;;;;;10.90;3.88;;;27.00;94.50;;;;;;5065217;28;20319;-36
2022/05/10 12:02:07;;;;;;;13.43;4.13;;;27.10;94.80;;;;;;5063224;28;20208;-36
2022/05/10 12:04:44;;;;;;;13.30;3.97;;;27.10;94.70;;;;;;5064534;28;20203;-36
2022/05/10 12:07:22;;;;;;;8.15;3.47;;;27.20;94.60;;;;;;5063447;28;20235;-36
2022/05/10 12:10:01;;;;;;;11.63;3.70;;;27.20;95.00;;;;;;5047567;28;20305;-36
2022/05/10 12:12:31;;;;;;;9.93;3.40;;;27.30;94.70;;;;;;5054281;28;20249;-36
2022/05/10 12:21:20;;;;;;;10.98;3.40;;;27.40;94.50;;;;;;5056397;28;20689;-36
2022/05/10 12:24:13;;;;;;;9.52;3.75;;;27.50;94.80;;;;;;5065531;28;20207;-36
2022/05/10 12:26:47;;;;;;;6.32;3.30;;;27.50;94.30;;;;;;5052473;28;20207;-36
2022/05/10 12:29:39;;;;;;;8.77;3.78;;;27.50;94.50;;;;;;5057781;28;20710;-36
2022/05/10 12:32:32;;;;;;;23.55;4.88;;;27.50;93.90;;;;;;5051408;28;20188;-36
2022/05/10 12:35:04;;;;;;;16.55;4.28;;;27.50;93.20;;;;;;5053473;28;20207;-36
2022/05/10 12:37:38;;;;;;;9.68;3.70;;;27.50;93.50;;;;;;5052802;28;20207;-36
2022/05/10 12:40:11;;;;;;;6.25;3.85;;;27.50;93.60;;;;;;5050164;28;20208;-36
2022/05/10 12:43:11;;;;;;;6.22;3.65;;;27.50;93.90;;;;;;5056019;28;20227;-36
2022/05/10 12:45:55;;;;;;;5.20;3.25;;;27.50;93.40;;;;;;5056608;28;20223;-36
2022/05/10 12:49:00;;;;;;;5.95;3.38;;;27.60;93.70;;;;;;5063291;28;20213;-36
2022/05/10 12:51:48;;;;;;;8.75;3.75;;;27.60;94.10;;;;;;5069162;28;20235;-36
2022/05/10 12:54:24;;;;;;;6.70;3.45;;;27.60;94.00;;;;;;5053685;28;20827;-37
2022/05/10 12:57:03;;;;;;;7.35;3.63;;;27.70;93.90;;;;;;5066862;28;20210;-37
2022/05/10 12:59:36;;;;;;;6.60;3.55;;;27.70;93.40;;;;;;5056854;28;20274;-37
2022/05/10 13:02:11;;;;;;;5.95;3.58;;;27.70;93.60;;;;;;5050065;28;20242;-37
2022/05/10 13:04:43;;;;;;;5.90;3.22;;;27.80;93.90;;;;;;5060196;28;20200;-37
2022/05/10 13:07:48;;;;;;;10.40;3.85;;;27.80;93.40;;;;;;5051806;28;20280;-36
2022/05/10 13:10:20;;;;;;;9.68;3.97;;;27.80;93.30;;;;;;5060062;28;20216;-37
2022/05/10 13:12:54;;;;;;;23.30;4.75;;;27.80;93.20;;;;;;5055376;28;20230;-36
2022/05/10 13:15:23;;;;;;;5.15;3.58;;;27.70;92.50;;;;;;5055836;28;20205;-36
2022/05/10 13:17:55;;;;;;;6.88;3.55;;;27.60;93.20;;;;;;5049952;28;20196;-37
2022/05/10 13:20:28;;;;;;;8.65;3.55;;;27.70;93.00;;;;;;5052167;28;20234;-37
2022/05/10 13:23:00;;;;;;;12.40;3.97;;;27.70;92.90;;;;;;5045113;28;20257;-36
2022/05/10 13:25:41;;;;;;;15.50;3.97;;;27.70;93.00;;;;;;5061609;28;20243;-37
2022/05/10 13:28:22;;;;;;;14.45;4.45;;;27.70;92.70;;;;;;5038630;28;20212;-37
2022/05/10 13:30:56;;;;;;;8.13;3.75;;;27.70;92.70;;;;;;5066031;28;20761;-37
2022/05/10 13:33:32;;;;;;;8.65;3.90;;;27.70;92.60;;;;;;5060777;28;20197;-36
2022/05/10 13:36:06;;;;;;;8.93;3.88;;;27.70;92.70;;;;;;5048239;28;20220;-37
2022/05/10 13:38:51;;;;;;;6.28;3.72;;;27.70;92.90;;;;;;5061206;28;20285;-36
2022/05/10 13:41:36;;;;;;;14.35;4.25;;;27.70;93.10;;;;;;5063911;28;20207;-36
2022/05/10 13:44:14;;;;;;;7.93;3.72;;;27.80;92.60;;;;;;5048404;28;20212;-36
2022/05/10 13:46:59;;;;;;;18.30;4.78;;;27.80;93.20;;;;;;5048821;28;20569;-34